Time;durP1;ratioP1;P1;durP2;ratioP2;P2;SDS_P1;SDS_P2;PMS_P1;PMS_P2;Temp;Humidity;BMP_temperature;BMP_pressure;BME280_temperature;BME280_humidity;BME280_pressure;Samples;Min_cycle;Max_cycle;Signal;HPM_P1;HPM_P2
2023/01/24 00:00:39;;;;;;;108.55;51.53;;;1.40;99.90;;;;;;5052073;28;20055;-85
2023/01/24 00:03:04;;;;;;;106.65;47.58;;;1.40;99.90;;;;;;5049760;28;20041;-85
2023/01/24 00:05:33;;;;;;;106.30;49.00;;;1.40;99.90;;;;;;5051419;28;20029;-86
2023/01/24 00:07:59;;;;;;;101.93;48.95;;;1.40;99.90;;;;;;5051496;28;20025;-85
2023/01/24 00:10:25;;;;;;;98.63;46.90;;;1.40;99.90;;;;;;5052221;28;20062;-86
2023/01/24 00:12:51;;;;;;;111.88;50.15;;;1.30;99.90;;;;;;5051798;28;20066;-85
2023/01/24 00:15:16;;;;;;;100.53;47.80;;;1.40;99.90;;;;;;5051547;28;20086;-86
2023/01/24 00:17:42;;;;;;;101.78;47.00;;;1.40;99.90;;;;;;5050772;28;20375;-86
2023/01/24 00:20:08;;;;;;;101.85;45.10;;;1.30;99.90;;;;;;5051884;28;20055;-85
2023/01/24 00:22:34;;;;;;;101.30;46.17;;;1.40;99.90;;;;;;5052616;28;20033;-86
2023/01/24 00:24:59;;;;;;;104.47;47.13;;;1.30;99.90;;;;;;5051458;28;20047;-86
2023/01/24 00:27:25;;;;;;;105.43;44.83;;;1.40;99.90;;;;;;5049501;28;20033;-86
2023/01/24 00:29:50;;;;;;;86.55;42.13;;;1.30;99.90;;;;;;5051818;28;20424;-86
2023/01/24 00:32:16;;;;;;;105.00;48.78;;;1.40;99.90;;;;;;5051312;28;20029;-85
2023/01/24 00:34:41;;;;;;;96.53;45.53;;;1.40;99.90;;;;;;5052347;28;20478;-85
2023/01/24 00:37:07;;;;;;;118.35;51.65;;;1.40;99.90;;;;;;5050228;28;20036;-86
2023/01/24 00:39:33;;;;;;;105.63;47.10;;;1.30;99.90;;;;;;5051417;28;20029;-85
2023/01/24 00:41:58;;;;;;;96.32;44.40;;;1.30;99.90;;;;;;5053088;28;20408;-85
2023/01/24 00:44:24;;;;;;;96.60;44.45;;;1.30;99.90;;;;;;5050010;28;20463;-85
2023/01/24 00:46:52;;;;;;;100.68;45.17;;;1.40;99.90;;;;;;5052061;28;20032;-86
2023/01/24 00:49:19;;;;;;;84.32;40.80;;;1.30;99.90;;;;;;5051290;28;20040;-85
2023/01/24 00:51:44;;;;;;;106.60;46.72;;;1.30;99.90;;;;;;5048975;28;20107;-86
2023/01/24 00:54:10;;;;;;;102.65;49.10;;;1.40;99.90;;;;;;5050912;28;20131;-86
2023/01/24 00:56:36;;;;;;;96.07;44.35;;;1.30;99.90;;;;;;5052824;28;20025;-86
2023/01/24 00:59:01;;;;;;;96.35;44.83;;;1.30;99.90;;;;;;5049145;28;20034;-86
2023/01/24 01:01:27;;;;;;;96.25;44.92;;;1.30;99.90;;;;;;5051038;28;20029;-85
2023/01/24 01:03:56;;;;;;;91.43;44.03;;;1.30;99.90;;;;;;5050399;28;20062;-85
2023/01/24 01:06:23;;;;;;;96.25;44.50;;;1.30;99.90;;;;;;5049518;28;20047;-85
2023/01/24 01:08:48;;;;;;;92.07;43.55;;;1.30;99.90;;;;;;5051645;28;20120;-85
2023/01/24 01:11:14;;;;;;;97.30;45.47;;;1.30;99.90;;;;;;5049831;28;20119;-85
2023/01/24 01:13:39;;;;;;;95.90;43.13;;;1.30;99.90;;;;;;5052415;28;20040;-85
2023/01/24 01:16:11;;;;;;;99.20;46.45;;;1.30;99.90;;;;;;5049860;28;20043;-85
2023/01/24 01:18:37;;;;;;;92.57;44.25;;;1.30;99.90;;;;;;5051628;28;20116;-85
2023/01/24 01:21:04;;;;;;;97.38;45.15;;;1.30;99.90;;;;;;5049021;28;20050;-85
2023/01/24 01:23:30;;;;;;;105.03;45.40;;;1.30;99.90;;;;;;5052412;28;20059;-85
2023/01/24 01:26:00;;;;;;;87.25;41.55;;;1.30;99.90;;;;;;5048189;28;20060;-85
2023/01/24 01:28:26;;;;;;;102.50;44.92;;;1.30;99.90;;;;;;5048748;28;20033;-86
2023/01/24 01:30:53;;;;;;;90.80;44.70;;;1.30;99.90;;;;;;5050883;28;20386;-85
2023/01/24 01:33:18;;;;;;;102.43;47.85;;;1.30;99.90;;;;;;5050071;28;20060;-86
2023/01/24 01:35:45;;;;;;;88.35;41.72;;;1.30;99.90;;;;;;5051167;28;20056;-86
2023/01/24 01:38:10;;;;;;;82.15;39.45;;;1.30;99.90;;;;;;5050197;28;20115;-85
2023/01/24 01:40:36;;;;;;;93.53;44.67;;;1.30;99.90;;;;;;5049017;28;20107;-85
2023/01/24 01:43:02;;;;;;;92.47;42.83;;;1.30;99.90;;;;;;5050859;28;20032;-85
2023/01/24 01:45:33;;;;;;;81.60;41.55;;;1.30;99.90;;;;;;5048613;28;20025;-85
2023/01/24 01:48:01;;;;;;;88.28;39.70;;;1.30;99.90;;;;;;5052004;28;20033;-85
2023/01/24 01:50:31;;;;;;;98.00;45.10;;;1.30;99.90;;;;;;5049833;28;20033;-85
2023/01/24 01:52:57;;;;;;;88.68;42.95;;;1.30;99.90;;;;;;5051070;28;20143;-86
2023/01/24 01:55:30;;;;;;;86.40;40.72;;;1.30;99.90;;;;;;5050343;28;20029;-85
2023/01/24 01:57:57;;;;;;;82.97;40.45;;;1.30;99.90;;;;;;5046369;28;20398;-85
2023/01/24 02:00:25;;;;;;;78.82;37.90;;;1.30;99.90;;;;;;5048277;28;20032;-85
2023/01/24 02:03:37;;;;;;;84.68;39.70;;;1.30;99.90;;;;;;5050475;28;20024;-85
2023/01/24 02:05:47;;;;;;;81.43;38.88;;;1.30;99.90;;;;;;5042654;28;20029;-85
2023/01/24 02:08:17;;;;;;;82.22;39.38;;;1.40;99.90;;;;;;5048818;28;20563;-85
2023/01/24 02:13:27;;;;;;;105.93;46.42;;;1.30;99.90;;;;;;5047938;28;20039;-85
2023/01/24 02:16:02;;;;;;;84.75;39.50;;;1.30;99.90;;;;;;5046079;28;20037;-85
2023/01/24 02:18:30;;;;;;;103.25;49.90;;;1.30;99.90;;;;;;5049457;28;20085;-85
2023/01/24 02:20:55;;;;;;;90.75;42.88;;;1.30;99.90;;;;;;5049456;28;20045;-85
2023/01/24 02:23:38;;;;;;;90.25;42.72;;;1.30;99.90;;;;;;5050089;28;20381;-85
2023/01/24 02:26:11;;;;;;;90.93;41.70;;;1.30;99.90;;;;;;5049448;28;20043;-85
2023/01/24 02:28:38;;;;;;;93.35;41.33;;;1.30;99.90;;;;;;5050290;28;20024;-85
2023/01/24 02:31:04;;;;;;;89.43;42.58;;;1.30;99.90;;;;;;5047962;28;20492;-85
2023/01/24 02:33:31;;;;;;;83.80;38.80;;;1.30;99.90;;;;;;5048389;28;20386;-85
2023/01/24 02:36:18;;;;;;;81.13;38.25;;;1.30;99.90;;;;;;5048964;28;20473;-85
2023/01/24 02:38:50;;;;;;;77.35;38.97;;;1.30;99.90;;;;;;5049167;28;20033;-85
2023/01/24 02:41:19;;;;;;;84.28;40.60;;;1.30;99.90;;;;;;5051346;28;20036;-85
2023/01/24 02:43:48;;;;;;;89.30;44.05;;;1.30;99.90;;;;;;5050858;28;20489;-85
2023/01/24 02:46:14;;;;;;;80.38;39.78;;;1.30;99.90;;;;;;5047636;28;20061;-85
2023/01/24 02:48:39;;;;;;;89.93;43.08;;;1.30;99.90;;;;;;5050636;28;20086;-85
2023/01/24 02:53:49;;;;;;;83.32;41.47;;;1.30;99.90;;;;;;5050962;28;20384;-85
2023/01/24 02:58:59;;;;;;;77.18;37.00;;;1.20;99.90;;;;;;5051200;28;20028;-85
2023/01/24 03:01:25;;;;;;;85.05;40.00;;;1.20;99.90;;;;;;5049177;28;20025;-85
2023/01/24 03:03:51;;;;;;;79.43;36.75;;;1.30;99.90;;;;;;5048992;28;20138;-85
2023/01/24 03:06:17;;;;;;;88.60;40.75;;;1.30;99.90;;;;;;5047631;28;20120;-85
2023/01/24 03:08:43;;;;;;;81.38;39.80;;;1.30;99.90;;;;;;5047804;28;20032;-85
2023/01/24 03:11:10;;;;;;;78.97;40.40;;;1.20;99.90;;;;;;5047644;28;20499;-85
2023/01/24 03:35:35;;;;;;;77.50;38.13;;;1.30;99.90;;;;;;5050798;28;20059;-85
2023/01/24 03:40:45;;;;;;;83.93;39.65;;;1.20;99.90;;;;;;5050607;28;20104;-85
2023/01/24 03:43:11;;;;;;;77.32;38.03;;;1.20;99.90;;;;;;5050489;28;20111;-84
2023/01/24 03:45:39;;;;;;;84.65;41.38;;;1.20;99.90;;;;;;5050333;28;20069;-85
2023/01/24 03:48:15;;;;;;;80.80;40.75;;;1.30;99.90;;;;;;5049350;28;20112;-85
2023/01/24 03:53:29;;;;;;;75.82;35.95;;;1.20;99.90;;;;;;5054689;28;20074;-85
2023/01/24 03:55:58;;;;;;;82.18;39.65;;;1.20;99.90;;;;;;5059151;28;20123;-85
2023/01/24 03:58:25;;;;;;;68.50;37.05;;;1.20;99.90;;;;;;5052752;28;20060;-85
2023/01/24 04:00:52;;;;;;;86.82;42.28;;;1.20;99.90;;;;;;5051639;28;20032;-85
2023/01/24 04:03:18;;;;;;;79.85;39.80;;;1.20;99.90;;;;;;5049198;28;20033;-85
2023/01/24 04:05:45;;;;;;;78.43;37.75;;;1.20;99.90;;;;;;5050961;28;20040;-85
2023/01/24 04:08:11;;;;;;;78.93;37.75;;;1.20;99.90;;;;;;5066331;28;20401;-85
2023/01/24 04:10:36;;;;;;;81.10;40.15;;;1.20;99.90;;;;;;5052709;28;20191;-84
2023/01/24 04:13:02;;;;;;;83.07;38.60;;;1.20;99.90;;;;;;5067964;28;20374;-85
2023/01/24 04:15:30;;;;;;;70.68;35.58;;;1.20;99.90;;;;;;5050716;28;20441;-85
2023/01/24 04:17:59;;;;;;;75.45;37.05;;;1.20;99.90;;;;;;5046329;28;20048;-84
2023/01/24 04:20:28;;;;;;;77.45;37.38;;;1.20;99.90;;;;;;5053944;28;20033;-85
2023/01/24 04:22:54;;;;;;;81.38;38.42;;;1.20;99.90;;;;;;5056542;28;20029;-84
2023/01/24 04:25:20;;;;;;;82.30;38.55;;;1.20;99.90;;;;;;5052404;28;20035;-85
2023/01/24 04:27:45;;;;;;;88.05;39.15;;;1.20;99.90;;;;;;5060629;28;20040;-85
2023/01/24 04:30:13;;;;;;;79.80;37.25;;;1.20;99.90;;;;;;5047732;28;20044;-85
2023/01/24 04:32:39;;;;;;;81.07;38.47;;;1.20;99.90;;;;;;5050760;28;20111;-85
2023/01/24 04:35:06;;;;;;;82.15;40.05;;;1.20;99.90;;;;;;5054716;28;20116;-84
2023/01/24 04:37:32;;;;;;;79.15;39.50;;;1.20;99.90;;;;;;5046035;28;20038;-88
2023/01/24 04:40:00;;;;;;;79.47;37.45;;;1.20;99.90;;;;;;5047950;28;20025;-85
2023/01/24 04:42:26;;;;;;;79.22;38.50;;;1.20;99.90;;;;;;5041796;28;20029;-85
2023/01/24 04:44:51;;;;;;;78.18;38.30;;;1.20;99.90;;;;;;5045858;28;20052;-85
2023/01/24 04:47:17;;;;;;;72.88;36.35;;;1.20;99.90;;;;;;5048663;28;20424;-85
2023/01/24 04:49:42;;;;;;;87.13;42.03;;;1.20;99.90;;;;;;5050911;28;20110;-86
2023/01/24 04:52:13;;;;;;;75.28;37.25;;;1.20;99.90;;;;;;5045509;28;20037;-84
2023/01/24 04:54:39;;;;;;;71.85;33.00;;;1.20;99.90;;;;;;5045679;28;20052;-85
2023/01/24 04:57:06;;;;;;;79.85;37.88;;;1.20;99.90;;;;;;5050518;28;20029;-85
2023/01/24 04:59:31;;;;;;;73.13;38.83;;;1.20;99.90;;;;;;5060404;28;20051;-86
2023/01/24 05:01:58;;;;;;;82.43;40.58;;;1.20;99.90;;;;;;5059057;28;20029;-85
2023/01/24 05:04:24;;;;;;;69.93;34.50;;;1.20;99.90;;;;;;5049629;28;20025;-85
2023/01/24 05:06:49;;;;;;;74.20;37.85;;;1.20;99.90;;;;;;5056033;28;20417;-86
2023/01/24 05:09:18;;;;;;;81.85;40.28;;;1.20;99.90;;;;;;5051005;28;20036;-86
2023/01/24 05:11:43;;;;;;;82.60;38.88;;;1.10;99.90;;;;;;5060576;28;20489;-86
2023/01/24 05:14:15;;;;;;;77.95;38.15;;;1.20;99.90;;;;;;5056196;28;20079;-85
2023/01/24 05:16:41;;;;;;;83.50;39.22;;;1.20;99.90;;;;;;5058115;28;20035;-85
2023/01/24 05:19:06;;;;;;;76.55;37.35;;;1.20;99.90;;;;;;5054697;28;20025;-86
2023/01/24 05:21:32;;;;;;;85.28;40.05;;;1.20;99.90;;;;;;5054807;28;20426;-85
2023/01/24 05:23:58;;;;;;;87.50;40.83;;;1.20;99.90;;;;;;5045329;28;20021;-85
2023/01/24 05:26:25;;;;;;;83.55;41.47;;;1.20;99.90;;;;;;5051414;28;20041;-84
2023/01/24 05:28:53;;;;;;;77.68;38.83;;;1.20;99.90;;;;;;5057070;28;20035;-86
2023/01/24 05:31:19;;;;;;;98.05;41.42;;;1.20;99.90;;;;;;5057546;28;20576;-85
2023/01/24 05:33:45;;;;;;;91.45;42.40;;;1.20;99.90;;;;;;5055963;28;20048;-86
2023/01/24 05:36:13;;;;;;;98.10;42.95;;;1.20;99.90;;;;;;5051581;28;20063;-85
2023/01/24 05:38:39;;;;;;;84.30;38.92;;;1.10;99.90;;;;;;5055569;28;20025;-85
2023/01/24 05:41:07;;;;;;;82.00;38.80;;;1.10;99.90;;;;;;5053688;28;20035;-86
2023/01/24 05:43:34;;;;;;;79.82;38.08;;;1.10;99.90;;;;;;5048780;28;20036;-87
2023/01/24 05:46:09;;;;;;;77.15;37.15;;;1.10;99.90;;;;;;5046617;28;20060;-86
2023/01/24 05:48:35;;;;;;;89.70;42.25;;;1.10;99.90;;;;;;5050673;28;20031;-85
2023/01/24 05:51:06;;;;;;;81.72;39.42;;;1.20;99.90;;;;;;5049019;28;20428;-85
2023/01/24 05:53:34;;;;;;;76.28;39.47;;;1.10;99.90;;;;;;5050359;28;20028;-86
2023/01/24 05:56:06;;;;;;;87.18;42.65;;;1.10;99.90;;;;;;5053146;28;20031;-86
2023/01/24 05:58:36;;;;;;;79.63;39.35;;;1.20;99.90;;;;;;5057422;28;20063;-85
2023/01/24 06:01:07;;;;;;;87.97;42.58;;;1.20;99.90;;;;;;5049973;28;20433;-86
2023/01/24 06:03:33;;;;;;;80.75;39.60;;;1.10;99.90;;;;;;5057687;28;20025;-86
2023/01/24 06:05:58;;;;;;;92.18;42.65;;;1.10;99.90;;;;;;5056956;28;20362;-86
2023/01/24 06:08:24;;;;;;;90.22;41.88;;;1.10;99.90;;;;;;5057494;28;20488;-85
2023/01/24 06:10:49;;;;;;;84.95;43.38;;;1.10;99.90;;;;;;5057639;28;20431;-85
2023/01/24 06:13:15;;;;;;;89.20;42.17;;;1.10;99.90;;;;;;5058433;28;20078;-86
2023/01/24 06:15:41;;;;;;;89.50;41.92;;;1.10;99.90;;;;;;5054126;28;20025;-85
2023/01/24 06:18:12;;;;;;;93.47;44.38;;;1.10;99.90;;;;;;5058482;28;20069;-86
2023/01/24 06:20:38;;;;;;;100.45;44.92;;;1.10;99.90;;;;;;5054294;28;20052;-85
2023/01/24 06:23:06;;;;;;;85.45;42.00;;;1.10;99.90;;;;;;5058161;28;20020;-86
2023/01/24 06:25:32;;;;;;;96.65;46.30;;;1.10;99.90;;;;;;5057829;28;20362;-85
2023/01/24 06:27:59;;;;;;;90.72;42.20;;;1.20;99.90;;;;;;5058063;28;20028;-86
2023/01/24 06:30:25;;;;;;;91.32;42.67;;;1.10;99.90;;;;;;5046189;28;20032;-85
2023/01/24 06:33:18;;;;;;;92.45;43.15;;;1.10;99.90;;;;;;5064968;28;20037;-85
2023/01/24 06:35:56;;;;;;;99.82;46.58;;;1.10;99.90;;;;;;5063731;28;20035;-86
2023/01/24 06:38:24;;;;;;;104.03;48.85;;;1.10;99.90;;;;;;5047378;28;20090;-86
2023/01/24 06:40:56;;;;;;;104.85;48.17;;;1.10;99.90;;;;;;5057608;28;20037;-86
2023/01/24 06:43:23;;;;;;;100.28;45.53;;;1.10;99.90;;;;;;5057474;28;20052;-86
2023/01/24 06:45:49;;;;;;;96.90;45.40;;;1.10;99.90;;;;;;5061045;28;20078;-85
2023/01/24 06:48:14;;;;;;;104.70;45.88;;;1.10;99.90;;;;;;5057390;28;20029;-86
2023/01/24 06:50:40;;;;;;;96.60;45.25;;;1.10;99.90;;;;;;5057709;28;20036;-86
2023/01/24 06:53:07;;;;;;;95.35;44.33;;;1.10;99.90;;;;;;5062307;28;20025;-85
2023/01/24 06:55:33;;;;;;;96.13;43.10;;;1.10;99.90;;;;;;5066563;28;20043;-86
2023/01/24 06:58:00;;;;;;;97.25;45.95;;;1.10;99.90;;;;;;5048054;28;20020;-86
2023/01/24 07:00:28;;;;;;;109.32;52.55;;;1.10;99.90;;;;;;5067879;28;20029;-86
2023/01/24 07:03:08;;;;;;;114.30;58.95;;;1.10;99.90;;;;;;5067611;28;20158;-85
2023/01/24 07:05:35;;;;;;;95.32;46.67;;;1.10;99.90;;;;;;5058257;28;20036;-85
2023/01/24 07:08:02;;;;;;;99.18;46.20;;;1.10;99.90;;;;;;5062973;28;20056;-86
2023/01/24 07:10:28;;;;;;;88.63;42.45;;;1.10;99.90;;;;;;5058328;28;20115;-86
2023/01/24 07:12:54;;;;;;;86.47;42.22;;;1.10;99.90;;;;;;5065615;28;20059;-86
2023/01/24 07:15:20;;;;;;;98.38;44.45;;;1.10;99.90;;;;;;5047442;28;20037;-85
2023/01/24 07:17:45;;;;;;;95.95;46.25;;;1.10;99.90;;;;;;5051587;28;20035;-86
2023/01/24 07:20:12;;;;;;;88.38;42.03;;;1.10;99.90;;;;;;5049247;28;20049;-86
2023/01/24 07:22:40;;;;;;;94.40;44.47;;;1.10;99.90;;;;;;5049023;28;20043;-85
2023/01/24 07:25:14;;;;;;;100.90;46.70;;;1.00;99.90;;;;;;5062572;28;20025;-85
2023/01/24 07:27:43;;;;;;;93.32;45.55;;;1.10;99.90;;;;;;5048054;28;20102;-85
2023/01/24 07:30:11;;;;;;;112.38;51.08;;;1.00;99.90;;;;;;5048110;28;20102;-84
2023/01/24 07:32:37;;;;;;;102.43;48.00;;;1.10;99.90;;;;;;5065095;28;20033;-85
2023/01/24 07:35:03;;;;;;;108.85;48.55;;;1.10;99.90;;;;;;5057462;28;20386;-85
2023/01/24 07:37:29;;;;;;;102.32;48.53;;;1.00;99.90;;;;;;5056842;28;20021;-86
2023/01/24 07:39:55;;;;;;;108.25;48.17;;;1.10;99.90;;;;;;5049383;28;20036;-84
2023/01/24 07:42:20;;;;;;;92.20;44.25;;;1.00;99.90;;;;;;5063134;28;20028;-85
2023/01/24 07:44:46;;;;;;;101.03;46.47;;;1.00;99.90;;;;;;5062175;28;20190;-86
2023/01/24 07:47:11;;;;;;;92.95;45.08;;;1.00;99.90;;;;;;5058549;28;20561;-86
2023/01/24 07:49:37;;;;;;;97.53;45.47;;;1.00;99.90;;;;;;5062427;28;20033;-86
2023/01/24 07:52:02;;;;;;;98.60;46.60;;;1.00;99.90;;;;;;5052209;28;20465;-85
2023/01/24 07:54:28;;;;;;;98.72;46.42;;;1.00;99.90;;;;;;5069424;28;20490;-86
2023/01/24 07:56:53;;;;;;;98.55;44.45;;;1.00;99.90;;;;;;5068456;28;20439;-85
2023/01/24 07:59:19;;;;;;;94.93;44.55;;;1.00;99.90;;;;;;5060339;28;20020;-86
2023/01/24 08:01:45;;;;;;;99.57;46.78;;;1.00;99.90;;;;;;5052528;28;20052;-85
2023/01/24 08:04:10;;;;;;;99.78;44.88;;;1.00;99.90;;;;;;5070418;28;20032;-85
2023/01/24 08:06:37;;;;;;;95.45;43.63;;;1.00;99.90;;;;;;5060276;28;20430;-86
2023/01/24 08:09:03;;;;;;;100.93;45.97;;;1.00;99.90;;;;;;5059554;28;20046;-86
2023/01/24 08:11:29;;;;;;;101.15;46.42;;;1.00;99.90;;;;;;5060159;28;20032;-86
2023/01/24 08:13:54;;;;;;;100.22;47.35;;;1.00;99.90;;;;;;5054605;28;20082;-85
2023/01/24 08:16:23;;;;;;;93.38;46.20;;;1.00;99.90;;;;;;5058939;28;20016;-85
2023/01/24 08:18:49;;;;;;;103.07;46.13;;;1.00;99.90;;;;;;5060764;28;20029;-85
2023/01/24 08:21:14;;;;;;;89.18;43.08;;;1.00;99.90;;;;;;5060419;28;20098;-86
2023/01/24 08:23:40;;;;;;;92.55;43.55;;;1.00;99.90;;;;;;5053928;28;20024;-85
2023/01/24 08:26:06;;;;;;;101.97;47.00;;;1.00;99.90;;;;;;5059334;28;20035;-86
2023/01/24 08:28:32;;;;;;;89.50;45.83;;;1.00;99.90;;;;;;5053549;28;20053;-86
2023/01/24 08:30:58;;;;;;;103.90;48.92;;;1.00;99.90;;;;;;5059201;28;20029;-86
2023/01/24 08:33:24;;;;;;;101.72;48.33;;;1.00;99.90;;;;;;5056919;28;20023;-85
2023/01/24 08:35:50;;;;;;;95.03;45.05;;;1.00;99.90;;;;;;5067203;28;20017;-85
2023/01/24 08:38:16;;;;;;;97.45;45.10;;;1.00;99.90;;;;;;5059909;28;20037;-86
2023/01/24 08:40:42;;;;;;;104.57;49.60;;;1.00;99.90;;;;;;5060640;28;20033;-85
2023/01/24 08:43:08;;;;;;;106.13;49.80;;;1.00;99.90;;;;;;5062796;28;20064;-85
2023/01/24 08:45:34;;;;;;;106.25;48.38;;;1.00;99.90;;;;;;5063338;28;20052;-86
2023/01/24 08:47:59;;;;;;;104.72;49.20;;;1.00;99.90;;;;;;5064913;28;20059;-86
2023/01/24 08:50:25;;;;;;;99.68;47.65;;;1.00;99.90;;;;;;5055479;28;20466;-85
2023/01/24 08:52:55;;;;;;;106.55;49.08;;;1.00;99.90;;;;;;5050684;28;20051;-85
2023/01/24 08:55:21;;;;;;;109.63;48.63;;;1.00;99.90;;;;;;5055285;28;20489;-85
2023/01/24 08:57:47;;;;;;;109.00;48.95;;;1.00;99.90;;;;;;5049475;28;20056;-85
2023/01/24 09:00:13;;;;;;;102.45;49.03;;;1.00;99.90;;;;;;5056522;28;20083;-85
2023/01/24 09:02:39;;;;;;;104.93;47.95;;;1.00;99.90;;;;;;5063786;28;20036;-85
2023/01/24 09:05:06;;;;;;;104.75;45.90;;;1.00;99.90;;;;;;5062214;28;20028;-86
2023/01/24 09:07:32;;;;;;;116.78;52.83;;;1.00;99.90;;;;;;5062507;28;20040;-86
2023/01/24 09:09:57;;;;;;;112.30;52.70;;;1.00;99.90;;;;;;5059088;28;20036;-85
2023/01/24 09:12:23;;;;;;;111.22;50.35;;;1.00;99.90;;;;;;5058896;28;20020;-85
2023/01/24 09:14:49;;;;;;;96.35;45.70;;;1.00;99.90;;;;;;5062819;28;20490;-86
2023/01/24 09:17:14;;;;;;;112.82;49.92;;;1.00;99.90;;;;;;5051630;28;20032;-85
2023/01/24 09:19:40;;;;;;;89.97;44.08;;;1.00;99.90;;;;;;5053295;28;20047;-84
2023/01/24 09:22:05;;;;;;;94.65;46.38;;;1.00;99.90;;;;;;5060206;28;20040;-85
2023/01/24 09:24:31;;;;;;;112.20;50.05;;;1.00;99.90;;;;;;5063240;28;20033;-85
2023/01/24 09:26:56;;;;;;;105.25;48.65;;;1.10;99.90;;;;;;5053278;28;20044;-84
2023/01/24 09:29:22;;;;;;;103.43;46.65;;;1.00;99.90;;;;;;5058973;28;20033;-85
2023/01/24 09:31:48;;;;;;;98.13;46.70;;;1.00;99.90;;;;;;5053959;28;20035;-86
2023/01/24 09:34:14;;;;;;;95.47;45.78;;;1.00;99.90;;;;;;5053659;28;20523;-86
2023/01/24 09:36:40;;;;;;;97.68;46.30;;;1.10;99.90;;;;;;5062917;28;20028;-86
2023/01/24 09:39:06;;;;;;;102.78;45.92;;;1.10;99.90;;;;;;5059172;28;20394;-86
2023/01/24 09:41:31;;;;;;;91.63;44.03;;;1.10;99.90;;;;;;5057446;28;20028;-85
2023/01/24 09:44:02;;;;;;;101.75;48.72;;;1.10;99.90;;;;;;5058412;28;20028;-86
2023/01/24 09:46:45;;;;;;;101.32;45.60;;;1.10;99.90;;;;;;5057957;28;20072;-86
2023/01/24 09:49:34;;;;;;;94.07;43.28;;;1.10;99.90;;;;;;5047832;28;20029;-85
2023/01/24 09:52:00;;;;;;;100.93;45.70;;;1.10;99.90;;;;;;5051887;28;20035;-86
2023/01/24 09:54:43;;;;;;;96.85;46.00;;;1.10;99.90;;;;;;5066296;28;20492;-86
2023/01/24 09:57:26;;;;;;;91.38;44.47;;;1.10;99.90;;;;;;5053386;28;20025;-84
2023/01/24 09:59:57;;;;;;;105.50;51.40;;;1.10;99.90;;;;;;5052957;28;20017;-85
2023/01/24 10:02:27;;;;;;;89.45;45.72;;;1.10;99.90;;;;;;5051271;28;20029;-85
2023/01/24 10:04:53;;;;;;;97.60;48.88;;;1.10;99.90;;;;;;5056712;28;20017;-86
2023/01/24 10:07:45;;;;;;;93.78;45.00;;;1.10;99.90;;;;;;5051458;28;20044;-86
2023/01/24 10:10:24;;;;;;;88.18;42.50;;;1.10;99.90;;;;;;5045690;28;20036;-85
2023/01/24 10:13:10;;;;;;;97.22;45.33;;;1.10;99.90;;;;;;5053004;28;20571;-86
2023/01/24 10:15:44;;;;;;;92.32;44.42;;;1.20;99.90;;;;;;5051898;28;20056;-86
2023/01/24 10:18:43;;;;;;;83.55;42.72;;;1.10;99.90;;;;;;5053259;28;20469;-85
2023/01/24 10:21:56;;;;;;;83.18;42.03;;;1.10;99.90;;;;;;5056455;28;20115;-86
2023/01/24 10:24:29;;;;;;;93.75;43.78;;;1.10;99.90;;;;;;5008313;28;20495;-86
2023/01/24 10:26:55;;;;;;;79.63;38.50;;;1.10;99.90;;;;;;5047898;28;20507;-86
2023/01/24 10:29:26;;;;;;;77.10;41.25;;;1.10;99.90;;;;;;5051236;28;20497;-86
2023/01/24 10:31:52;;;;;;;90.50;45.30;;;1.10;99.90;;;;;;5055680;28;20281;-87
2023/01/24 10:34:40;;;;;;;109.20;48.65;;;1.10;99.90;;;;;;5051958;28;20100;-86
2023/01/24 10:37:09;;;;;;;92.00;46.38;;;1.10;99.90;;;;;;5061855;28;20039;-85
2023/01/24 10:39:34;;;;;;;94.82;45.35;;;1.10;99.90;;;;;;5058572;28;20048;-86
2023/01/24 10:42:00;;;;;;;87.75;42.33;;;1.10;99.90;;;;;;5057118;28;20398;-86
2023/01/24 10:44:28;;;;;;;75.85;38.88;;;1.10;99.90;;;;;;5068016;28;20063;-86
2023/01/24 10:46:59;;;;;;;82.50;38.50;;;1.10;99.90;;;;;;5066782;28;20115;-84
2023/01/24 10:49:41;;;;;;;85.50;41.40;;;1.00;99.90;;;;;;5055257;28;20485;-85
2023/01/24 10:52:11;;;;;;;85.57;40.20;;;1.10;99.90;;;;;;5057874;28;20029;-86
2023/01/24 10:54:55;;;;;;;79.72;41.95;;;1.10;99.90;;;;;;5064937;28;20107;-86
2023/01/24 10:57:34;;;;;;;78.60;40.15;;;1.10;99.90;;;;;;5057278;28;20379;-85
2023/01/24 11:00:06;;;;;;;78.18;38.78;;;1.10;99.90;;;;;;5065481;28;20028;-86
2023/01/24 11:02:35;;;;;;;88.07;43.05;;;1.10;99.90;;;;;;5058378;28;20033;-85
2023/01/24 11:05:04;;;;;;;78.50;39.70;;;1.10;99.90;;;;;;5042456;28;20028;-86
2023/01/24 11:07:35;;;;;;;92.63;43.42;;;1.10;99.90;;;;;;5056308;28;20103;-86
2023/01/24 11:10:28;;;;;;;88.07;42.58;;;1.10;99.90;;;;;;5058611;28;20103;-86
2023/01/24 11:12:59;;;;;;;90.80;44.65;;;1.10;99.90;;;;;;5058334;28;20115;-86
2023/01/24 11:15:35;;;;;;;80.60;41.42;;;1.10;99.90;;;;;;5066497;28;20135;-85
2023/01/24 11:18:19;;;;;;;91.55;42.58;;;1.10;99.90;;;;;;5069623;28;20025;-86
2023/01/24 11:20:45;;;;;;;86.82;41.70;;;1.10;99.90;;;;;;5049311;28;20132;-88
2023/01/24 11:23:14;;;;;;;82.00;42.47;;;1.10;99.90;;;;;;5060298;28;20528;-85
2023/01/24 11:25:54;;;;;;;84.50;41.78;;;1.10;99.90;;;;;;5052919;28;20450;-85
2023/01/24 11:28:28;;;;;;;85.63;41.58;;;1.10;99.90;;;;;;5061663;28;20029;-86
2023/01/24 11:31:02;;;;;;;82.32;41.97;;;1.10;99.90;;;;;;5056749;28;20103;-85
2023/01/24 11:33:34;;;;;;;93.78;45.22;;;1.10;99.90;;;;;;5054793;28;20245;-86
2023/01/24 11:36:16;;;;;;;84.32;41.20;;;1.10;99.90;;;;;;5050336;28;20120;-86
2023/01/24 11:38:43;;;;;;;93.88;46.10;;;1.10;99.90;;;;;;5054026;28;20071;-86
2023/01/24 11:41:32;;;;;;;86.35;43.58;;;1.10;99.90;;;;;;5052136;28;20090;-85
2023/01/24 11:44:20;;;;;;;83.75;42.33;;;1.10;99.90;;;;;;5053963;28;20045;-86
2023/01/24 11:47:07;;;;;;;75.50;39.78;;;1.10;99.90;;;;;;5067191;28;20040;-86
2023/01/24 11:49:56;;;;;;;83.60;41.13;;;1.10;99.90;;;;;;5053899;28;20025;-86
2023/01/24 11:52:36;;;;;;;87.47;42.65;;;1.10;99.90;;;;;;5057605;28;20032;-86
2023/01/24 11:55:15;;;;;;;88.55;43.55;;;1.10;99.90;;;;;;5054210;28;20626;-86
2023/01/24 11:58:13;;;;;;;81.05;42.65;;;1.10;99.90;;;;;;5064498;28;20542;-86
2023/01/24 12:01:26;;;;;;;87.45;41.97;;;1.20;99.90;;;;;;5053416;28;20062;-85
2023/01/24 12:03:54;;;;;;;75.70;36.72;;;1.10;99.90;;;;;;5008265;28;20033;-86
2023/01/24 12:06:54;;;;;;;67.82;35.50;;;1.20;99.90;;;;;;5008444;28;20490;-86
2023/01/24 12:09:23;;;;;;;66.82;33.17;;;1.20;99.90;;;;;;5038366;28;20053;-85
2023/01/24 12:11:54;;;;;;;82.50;40.75;;;1.20;99.90;;;;;;5057680;28;20049;-86
2023/01/24 12:14:28;;;;;;;78.40;39.88;;;1.20;99.90;;;;;;5043834;28;20469;-85
2023/01/24 12:17:26;;;;;;;75.05;37.30;;;1.20;99.90;;;;;;5053597;28;20029;-86
2023/01/24 12:20:32;;;;;;;78.82;39.60;;;1.20;99.90;;;;;;5038154;28;20036;-86
2023/01/24 12:23:36;;;;;;;68.40;35.10;;;1.20;99.90;;;;;;5059401;28;20320;-86
2023/01/24 12:26:22;;;;;;;69.57;35.30;;;1.20;99.90;;;;;;5050402;28;20033;-86
2023/01/24 12:28:51;;;;;;;;;;;1.20;99.90;;;;;;5054243;28;20081;-87
2023/01/24 12:31:26;;;;;;;70.97;35.95;;;1.20;99.90;;;;;;5068860;28;20416;-85
2023/01/24 12:33:51;;;;;;;77.40;39.13;;;1.20;99.90;;;;;;5056117;28;20029;-86
2023/01/24 12:36:40;;;;;;;72.63;36.92;;;1.20;99.90;;;;;;5052182;28;20041;-87
2023/01/24 12:39:30;;;;;;;71.88;37.20;;;1.20;99.90;;;;;;5062583;28;20054;-86
2023/01/24 12:42:12;;;;;;;75.68;35.95;;;1.20;99.90;;;;;;5067745;28;20157;-86
2023/01/24 12:44:43;;;;;;;71.28;34.95;;;1.20;99.90;;;;;;5059626;28;20028;-86
2023/01/24 12:47:27;;;;;;;75.88;36.05;;;1.20;99.90;;;;;;5049812;28;20067;-85
2023/01/24 12:50:14;;;;;;;72.63;35.13;;;1.20;99.90;;;;;;5062620;28;20020;-85
2023/01/24 12:52:47;;;;;;;85.15;39.50;;;1.20;99.90;;;;;;5057407;28;20484;-85
2023/01/24 12:55:25;;;;;;;82.32;40.35;;;1.20;99.90;;;;;;5057133;28;20024;-86
2023/01/24 12:58:20;;;;;;;83.25;42.85;;;1.10;99.90;;;;;;5052530;28;20035;-86
2023/01/24 13:01:01;;;;;;;76.03;40.15;;;1.20;99.90;;;;;;5050676;28;20384;-85
2023/01/24 13:03:41;;;;;;;94.88;48.42;;;1.20;99.90;;;;;;5055740;28;20071;-86
2023/01/24 13:06:07;;;;;;;96.82;51.47;;;1.20;99.90;;;;;;5049007;28;20067;-86
2023/01/24 13:08:55;;;;;;;127.63;58.47;;;1.20;99.90;;;;;;5051690;28;20493;-86
2023/01/24 13:11:28;;;;;;;114.97;53.58;;;1.20;99.90;;;;;;5042686;28;20068;-86
2023/01/24 13:14:02;;;;;;;95.78;48.58;;;1.20;99.90;;;;;;5058077;28;20081;-85
2023/01/24 13:16:47;;;;;;;83.00;39.33;;;1.20;99.90;;;;;;5056064;28;20481;-86
2023/01/24 13:19:53;;;;;;;80.97;37.45;;;1.20;99.90;;;;;;5040286;28;20047;-86
2023/01/24 13:22:38;;;;;;;65.22;33.13;;;1.20;99.90;;;;;;5026385;28;20076;-87
2023/01/24 13:25:16;;;;;;;63.72;34.13;;;1.20;99.90;;;;;;5058420;28;20041;-86
2023/01/24 13:27:48;;;;;;;64.13;33.08;;;1.20;99.90;;;;;;5051147;28;20370;-86